createdAt,value
2019-03-11T00:02:15.531Z,4.60
2019-03-11T00:04:44.541Z,4.60
2019-03-11T00:07:13.607Z,4.50
2019-03-11T00:09:42.803Z,4.60
2019-03-11T00:12:11.796Z,4.50
2019-03-11T00:14:40.862Z,4.60
2019-03-11T00:17:09.882Z,4.50
2019-03-11T00:19:38.892Z,4.50
2019-03-11T00:22:08.263Z,4.50
2019-03-11T00:24:37.218Z,4.40
2019-03-11T00:27:06.302Z,4.40
2019-03-11T00:29:35.227Z,4.30
2019-03-11T00:32:04.262Z,4.40
2019-03-11T00:34:33.146Z,4.40
2019-03-11T00:37:02.108Z,4.40
2019-03-11T00:39:31.107Z,4.50
2019-03-11T00:42:00.266Z,4.50
2019-03-11T00:44:29.510Z,4.50
2019-03-11T00:46:58.459Z,4.50
2019-03-11T00:49:27.515Z,4.60
2019-03-11T00:51:56.779Z,4.60
2019-03-11T00:54:25.706Z,4.70
2019-03-11T00:56:54.622Z,4.70
2019-03-11T00:59:23.815Z,4.70
2019-03-11T01:01:52.862Z,4.70
2019-03-11T01:04:22.174Z,4.80
2019-03-11T01:06:51.167Z,4.80
2019-03-11T01:09:20.253Z,4.80
2019-03-11T01:11:49.231Z,4.80
2019-03-11T01:14:18.109Z,4.80
2019-03-11T01:16:47.149Z,4.80
2019-03-11T01:19:16.109Z,4.80
2019-03-11T01:21:45.263Z,4.90
2019-03-11T01:24:14.315Z,4.90
2019-03-11T01:26:43.478Z,4.90
2019-03-11T01:29:12.859Z,4.90
2019-03-11T01:31:41.940Z,4.90
2019-03-11T01:34:11.063Z,4.90
2019-03-11T01:36:40.071Z,4.90
2019-03-11T01:39:09.111Z,4.90
2019-03-11T01:41:38.275Z,4.90
2019-03-11T01:44:07.700Z,5.00
2019-03-11T01:46:36.784Z,5.00
2019-03-11T01:49:05.857Z,5.00
2019-03-11T01:51:34.980Z,5.00
2019-03-11T01:54:04.099Z,5.00
2019-03-11T01:56:33.158Z,5.00
2019-03-11T01:59:02.228Z,5.00
2019-03-11T02:01:31.339Z,5.10
2019-03-11T02:04:00.371Z,5.10
2019-03-11T02:06:29.391Z,5.00
2019-03-11T02:08:58.423Z,5.10
2019-03-11T02:11:27.543Z,5.10
2019-03-11T02:13:56.717Z,5.10
2019-03-11T02:16:25.661Z,5.00
2019-03-11T02:18:54.706Z,5.10
2019-03-11T02:21:23.647Z,5.10
2019-03-11T02:23:52.818Z,5.10
2019-03-11T02:26:21.928Z,5.10
2019-03-11T02:28:50.889Z,5.10
2019-03-11T02:31:19.911Z,5.10
2019-03-11T02:33:48.822Z,5.10
2019-03-11T02:36:17.801Z,5.10
2019-03-11T02:38:46.854Z,5.10
2019-03-11T02:41:15.767Z,5.10
2019-03-11T02:43:44.798Z,5.10
2019-03-11T02:46:13.780Z,5.10
2019-03-11T02:48:42.722Z,5.20
2019-03-11T02:51:11.931Z,5.10
2019-03-11T02:53:41.243Z,5.10
2019-03-11T02:56:10.444Z,5.10
2019-03-11T02:58:39.381Z,5.20
2019-03-11T03:01:30.209Z,5.20
2019-03-11T03:04:03.389Z,5.20
2019-03-11T03:06:32.684Z,5.20
2019-03-11T03:09:01.720Z,5.20
2019-03-11T03:11:30.635Z,5.20
2019-03-11T03:13:59.716Z,5.20
2019-03-11T03:16:28.672Z,5.20
2019-03-11T03:18:57.658Z,5.20
2019-03-11T03:21:26.670Z,5.20
2019-03-11T03:23:55.692Z,5.20
2019-03-11T03:26:24.625Z,5.20
2019-03-11T03:28:53.827Z,5.10
2019-03-11T03:31:22.900Z,5.10
2019-03-11T03:33:52.021Z,5.10
2019-03-11T03:36:21.431Z,5.10
2019-03-11T03:38:50.439Z,5.10
2019-03-11T03:41:19.444Z,5.10
2019-03-11T03:43:48.520Z,5.10
2019-03-11T03:46:19.407Z,5.00
2019-03-11T03:48:48.572Z,5.10
2019-03-11T03:51:17.636Z,5.10
2019-03-11T03:53:46.540Z,5.00
2019-03-11T03:56:15.588Z,5.00
2019-03-11T03:58:44.547Z,5.00
2019-03-11T04:01:13.572Z,5.00
2019-03-11T04:03:42.848Z,5.00
2019-03-11T04:06:11.944Z,5.00
2019-03-11T04:08:40.899Z,5.00
2019-03-11T04:11:09.905Z,5.00
2019-03-11T04:13:39.198Z,5.00
2019-03-11T04:16:08.294Z,5.00
2019-03-11T04:18:50.853Z,5.10
2019-03-11T04:21:20.056Z,5.00
2019-03-11T04:23:49.648Z,5.00
2019-03-11T04:26:19.082Z,5.00
2019-03-11T04:28:48.269Z,5.00
2019-03-11T04:31:17.684Z,5.00
2019-03-11T04:33:46.572Z,5.10
2019-03-11T04:36:15.683Z,5.10
2019-03-11T04:38:44.671Z,5.10
2019-03-11T04:41:13.798Z,5.10
2019-03-11T04:43:42.895Z,5.00
2019-03-11T04:46:11.881Z,5.00
2019-03-11T04:48:41.054Z,5.10
2019-03-11T04:51:09.994Z,5.10
2019-03-11T04:53:38.967Z,5.10
2019-03-11T04:56:08.173Z,5.10
2019-03-11T04:58:37.181Z,5.10
2019-03-11T05:01:06.281Z,5.10
2019-03-11T05:03:35.506Z,5.10
2019-03-11T05:06:04.631Z,5.10
2019-03-11T05:08:33.624Z,5.10
2019-03-11T05:11:02.749Z,5.10
2019-03-11T05:13:32.131Z,5.10
2019-03-11T05:16:01.016Z,5.10
2019-03-11T05:18:30.131Z,5.10
2019-03-11T05:20:59.141Z,5.10
2019-03-11T05:23:28.119Z,5.10
2019-03-11T05:25:57.434Z,5.20
2019-03-11T05:28:26.396Z,5.10
2019-03-11T05:30:55.338Z,5.10
2019-03-11T05:33:24.408Z,5.10
2019-03-11T05:35:53.334Z,5.10
2019-03-11T05:38:22.362Z,5.10
2019-03-11T05:40:51.272Z,5.00
2019-03-11T05:43:20.350Z,5.00
2019-03-11T05:45:49.764Z,5.00
2019-03-11T05:48:19.054Z,5.00
2019-03-11T05:50:49.111Z,5.10
2019-03-11T05:53:18.198Z,5.00
2019-03-11T05:55:47.551Z,5.10
2019-03-11T05:58:16.638Z,5.10
2019-03-11T06:00:45.940Z,5.10
2019-03-11T06:03:14.903Z,5.10
2019-03-11T06:05:43.974Z,5.00
2019-03-11T06:08:22.003Z,5.00
2019-03-11T06:10:51.456Z,5.00
2019-03-11T06:13:20.544Z,5.00
2019-03-11T06:15:49.809Z,5.00
2019-03-11T06:18:38.162Z,5.00
2019-03-11T06:21:24.896Z,5.00
2019-03-11T06:23:54.082Z,4.90
2019-03-11T06:26:23.320Z,5.00
2019-03-11T06:28:52.445Z,5.00
2019-03-11T06:31:21.988Z,4.90
2019-03-11T06:33:50.959Z,4.90
2019-03-11T06:36:20.112Z,4.90
2019-03-11T06:38:49.475Z,4.90
2019-03-11T06:41:19.124Z,4.90
2019-03-11T06:43:48.201Z,4.90
2019-03-11T06:46:17.266Z,4.90
2019-03-11T06:48:46.312Z,4.80
2019-03-11T06:51:15.484Z,4.80
2019-03-11T06:53:44.548Z,4.80
2019-03-11T06:56:13.522Z,4.80
2019-03-11T06:58:42.594Z,4.80
2019-03-11T07:01:11.483Z,4.80
2019-03-11T07:03:40.414Z,4.80
2019-03-11T07:06:09.450Z,4.80
2019-03-11T07:08:38.574Z,4.80
2019-03-11T07:11:07.595Z,4.80
2019-03-11T07:13:36.613Z,4.80
2019-03-11T07:16:18.652Z,4.80
2019-03-11T07:18:47.998Z,4.80
2019-03-11T07:21:19.946Z,4.80
2019-03-11T07:23:57.956Z,4.90
2019-03-11T07:26:28.223Z,4.90
2019-03-11T07:28:57.241Z,4.90
2019-03-11T07:31:26.214Z,4.90
2019-03-11T07:33:55.198Z,5.00
2019-03-11T07:36:43.899Z,4.90
2019-03-11T07:39:13.495Z,4.90
2019-03-11T07:41:42.784Z,4.90
2019-03-11T07:44:12.898Z,5.00
2019-03-11T07:46:42.172Z,5.00
2019-03-11T07:49:11.216Z,5.00
2019-03-11T07:51:40.427Z,4.90
2019-03-11T07:54:09.503Z,4.90
2019-03-11T07:56:38.447Z,4.90
2019-03-11T07:59:07.497Z,4.90
2019-03-11T08:01:36.605Z,4.80
2019-03-11T08:04:05.869Z,4.80
2019-03-11T08:06:34.844Z,4.80
2019-03-11T08:09:05.084Z,4.80
2019-03-11T08:11:34.136Z,4.80
2019-03-11T08:14:03.018Z,4.90
2019-03-11T08:16:32.017Z,4.90
2019-03-11T08:19:01.116Z,4.90
2019-03-11T08:21:29.984Z,4.80
2019-03-11T08:23:58.918Z,4.80
2019-03-11T08:26:28.270Z,4.70
2019-03-11T08:28:57.202Z,4.60
2019-03-11T08:31:26.404Z,4.60
2019-03-11T08:33:55.578Z,4.60
2019-03-11T08:36:24.805Z,4.60
2019-03-11T08:38:53.995Z,4.60
2019-03-11T08:41:23.126Z,4.60
2019-03-11T08:43:52.036Z,4.60
2019-03-11T08:46:20.984Z,4.60
2019-03-11T08:48:49.968Z,4.50
2019-03-11T08:51:19.034Z,4.50
2019-03-11T08:53:48.538Z,4.50
2019-03-11T08:56:17.566Z,4.40
2019-03-11T08:58:46.539Z,4.40
2019-03-11T09:01:15.766Z,4.40
2019-03-11T09:03:44.814Z,4.40
2019-03-11T09:06:14.007Z,4.50
2019-03-11T09:08:43.099Z,4.50
2019-03-11T09:11:12.133Z,4.40
2019-03-11T09:13:41.374Z,4.40
2019-03-11T09:16:10.350Z,4.40
2019-03-11T09:18:39.311Z,4.40
2019-03-11T09:21:08.397Z,4.40
2019-03-11T09:23:37.683Z,4.40
2019-03-11T09:26:06.718Z,4.40
2019-03-11T09:28:35.891Z,4.40
2019-03-11T09:31:05.041Z,4.50
2019-03-11T09:33:34.945Z,4.50
2019-03-11T09:36:03.902Z,4.60
2019-03-11T09:38:32.870Z,4.60
2019-03-11T09:41:01.780Z,4.80
2019-03-11T09:43:30.800Z,4.80
2019-03-11T09:45:59.896Z,4.90
2019-03-11T09:48:28.859Z,5.10
2019-03-11T09:50:59.198Z,5.20
2019-03-11T09:53:28.405Z,5.20
2019-03-11T09:55:57.456Z,5.30
2019-03-11T09:58:26.797Z,5.30
2019-03-11T10:00:55.792Z,5.40
2019-03-11T10:03:24.798Z,5.50
2019-03-11T10:05:53.863Z,5.50
2019-03-11T10:08:22.859Z,5.60
2019-03-11T10:10:51.992Z,5.60
2019-03-11T10:13:20.903Z,5.60
2019-03-11T10:15:49.898Z,5.60
2019-03-11T10:18:18.922Z,5.60
2019-03-11T10:20:47.997Z,5.70
2019-03-11T10:23:18.094Z,5.70
2019-03-11T10:25:47.146Z,5.70
2019-03-11T10:28:16.170Z,5.70
2019-03-11T10:30:45.255Z,5.70
2019-03-11T10:33:14.370Z,5.70
2019-03-11T10:35:43.420Z,5.70
2019-03-11T10:38:12.462Z,5.70
2019-03-11T10:40:41.430Z,5.70
2019-03-11T10:43:10.449Z,5.70
2019-03-11T10:45:39.513Z,5.60
2019-03-11T10:48:08.523Z,5.60
2019-03-11T10:50:37.503Z,5.60
2019-03-11T10:53:06.518Z,5.60
2019-03-11T10:55:35.518Z,5.60
2019-03-11T10:58:04.629Z,5.70
2019-03-11T11:00:33.822Z,5.60
2019-03-11T11:03:02.932Z,5.60
2019-03-11T11:05:32.078Z,5.50
2019-03-11T11:08:01.258Z,5.40
2019-03-11T11:10:30.262Z,5.30
2019-03-11T11:12:59.250Z,5.20
2019-03-11T11:15:28.320Z,5.10
2019-03-11T11:17:57.480Z,5.00
2019-03-11T11:20:26.601Z,4.80
2019-03-11T11:22:56.350Z,4.70
2019-03-11T11:25:25.548Z,4.70
2019-03-11T11:27:56.721Z,4.60
2019-03-11T11:30:25.836Z,4.50
2019-03-11T11:32:55.205Z,4.40
2019-03-11T11:35:24.520Z,4.40
2019-03-11T11:37:53.869Z,4.40
2019-03-11T11:40:23.618Z,4.30
2019-03-11T11:42:52.946Z,4.30
2019-03-11T11:45:22.168Z,4.40
2019-03-11T11:47:51.344Z,4.40
2019-03-11T11:50:21.648Z,4.30
2019-03-11T11:52:51.059Z,4.30
2019-03-11T11:55:20.531Z,4.30
2019-03-11T11:58:09.182Z,4.40
2019-03-11T12:01:10.969Z,4.30
2019-03-11T12:04:15.322Z,4.40
2019-03-11T12:07:09.339Z,4.50
2019-03-11T12:10:12.677Z,4.60
2019-03-11T12:19:48.331Z,5.00
2019-03-11T12:22:26.677Z,5.20
2019-03-11T12:24:56.168Z,5.50
2019-03-11T12:27:25.387Z,5.70
2019-03-11T12:29:54.665Z,5.90
2019-03-11T12:32:23.946Z,6.10
2019-03-11T12:34:53.244Z,6.10
2019-03-11T12:37:23.256Z,6.20
2019-03-11T12:39:52.483Z,6.20
2019-03-11T12:42:21.907Z,6.10
2019-03-11T12:44:53.637Z,6.10
2019-03-11T12:47:21.735Z,6.10
2019-03-11T12:49:50.760Z,6.10
2019-03-11T12:52:20.331Z,6.10
2019-03-11T12:54:49.398Z,6.10
2019-03-11T12:57:18.412Z,6.10
2019-03-11T12:59:47.583Z,6.20
2019-03-11T13:02:16.746Z,6.10
2019-03-11T13:04:46.927Z,6.10
2019-03-11T13:07:15.976Z,6.20
2019-03-11T13:09:45.042Z,6.30
2019-03-11T13:12:14.217Z,6.30
2019-03-11T13:14:43.619Z,6.40
2019-03-11T13:17:12.615Z,6.50
2019-03-11T13:19:41.713Z,6.50
2019-03-11T13:22:13.178Z,6.50
2019-03-11T13:24:42.415Z,6.60
2019-03-11T13:27:11.608Z,6.50
2019-03-11T13:29:40.598Z,6.50
2019-03-11T13:32:09.839Z,6.60
2019-03-11T13:34:38.827Z,6.70
2019-03-11T13:37:08.935Z,6.70
2019-03-11T13:39:37.910Z,6.80
2019-03-11T13:42:06.933Z,6.80
2019-03-11T13:44:35.907Z,6.90
2019-03-11T13:47:05.123Z,6.90
2019-03-11T13:49:34.154Z,6.90
2019-03-11T13:52:03.204Z,6.90
2019-03-11T13:54:34.814Z,6.90
2019-03-11T13:57:03.907Z,6.90
2019-03-11T13:59:33.069Z,6.90
2019-03-11T14:02:03.168Z,6.80
2019-03-11T14:04:32.293Z,6.80
2019-03-11T14:07:01.617Z,6.80
2019-03-11T14:09:30.934Z,6.80
2019-03-11T14:12:00.316Z,6.80
2019-03-11T14:14:29.503Z,6.80
2019-03-11T14:16:59.001Z,6.80
2019-03-11T14:19:28.432Z,6.70
2019-03-11T14:21:58.001Z,6.70
2019-03-11T14:24:29.620Z,6.70
2019-03-11T14:26:58.926Z,6.70
2019-03-11T14:29:28.197Z,6.70
2019-03-11T14:31:59.878Z,6.70
2019-03-11T14:34:29.142Z,6.70
2019-03-11T14:36:58.521Z,6.70
2019-03-11T14:39:27.989Z,6.70
2019-03-11T14:41:57.120Z,6.70
2019-03-11T14:44:26.239Z,6.70
2019-03-11T14:46:55.482Z,6.70
2019-03-11T14:49:24.721Z,6.70
2019-03-11T14:51:53.715Z,6.60
2019-03-11T14:54:22.662Z,6.50
2019-03-11T14:56:51.957Z,6.50
2019-03-11T14:59:20.904Z,6.50
2019-03-11T15:01:49.898Z,6.60
2019-03-11T15:04:18.826Z,6.60
2019-03-11T15:06:48.082Z,6.70
2019-03-11T15:09:17.059Z,6.70
2019-03-11T15:11:46.151Z,6.80
2019-03-11T15:14:15.166Z,6.80
2019-03-11T15:16:44.387Z,6.90
2019-03-11T15:19:15.467Z,7.00
2019-03-11T15:22:04.731Z,7.00
2019-03-11T15:24:33.766Z,7.00
2019-03-11T15:27:02.859Z,6.90
2019-03-11T15:29:32.090Z,6.90
2019-03-11T15:32:01.254Z,6.90
2019-03-11T15:34:31.517Z,6.90
2019-03-11T15:37:03.302Z,6.90
2019-03-11T15:39:32.435Z,6.90
2019-03-11T15:42:01.427Z,7.00
2019-03-11T15:44:30.584Z,7.00
2019-03-11T15:46:59.719Z,7.00
2019-03-11T15:49:28.698Z,7.00
2019-03-11T15:51:57.785Z,7.00
2019-03-11T15:54:27.170Z,7.00
2019-03-11T15:56:56.467Z,7.00
2019-03-11T15:59:25.696Z,7.10
2019-03-11T16:01:54.987Z,7.10
2019-03-11T16:04:24.249Z,7.20
2019-03-11T16:06:53.410Z,7.20
2019-03-11T16:09:22.798Z,7.20
2019-03-11T16:11:52.222Z,7.20
2019-03-11T16:14:21.384Z,7.20
2019-03-11T16:16:50.819Z,7.10
2019-03-11T16:19:19.908Z,7.10
2019-03-11T16:21:49.122Z,7.10
2019-03-11T16:24:18.180Z,7.10
2019-03-11T16:26:47.366Z,7.00
2019-03-11T16:29:16.532Z,7.00
2019-03-11T16:31:45.534Z,7.00
2019-03-11T16:34:14.542Z,7.00
2019-03-11T16:36:43.642Z,6.90
2019-03-11T16:39:12.718Z,6.90
2019-03-11T16:41:41.911Z,6.90
2019-03-11T16:44:11.078Z,6.90
2019-03-11T16:46:39.971Z,6.80
2019-03-11T16:49:09.077Z,6.80
2019-03-11T16:51:38.018Z,6.80
2019-03-11T16:54:07.078Z,6.80
2019-03-11T16:56:36.427Z,6.80
2019-03-11T16:59:05.526Z,6.80
2019-03-11T17:01:34.903Z,6.80
2019-03-11T17:04:03.866Z,6.80
2019-03-11T17:06:32.942Z,6.80
2019-03-11T17:09:02.543Z,6.80
2019-03-11T17:11:31.849Z,6.80
2019-03-11T17:14:00.769Z,6.70
2019-03-11T17:16:30.151Z,6.70
2019-03-11T17:18:59.168Z,6.70
2019-03-11T17:21:28.684Z,6.70
2019-03-11T17:23:57.709Z,6.70
2019-03-11T17:26:26.895Z,6.70
2019-03-11T17:28:56.402Z,6.70
2019-03-11T17:31:28.820Z,6.70
2019-03-11T17:33:58.071Z,6.70
2019-03-11T17:36:29.486Z,6.80
2019-03-11T17:38:58.588Z,6.70
2019-03-11T17:41:30.773Z,6.70
2019-03-11T17:46:48.079Z,6.70
2019-03-11T17:49:17.705Z,6.70
2019-03-11T17:51:46.829Z,6.70
2019-03-11T17:54:15.776Z,6.70
2019-03-11T17:56:44.774Z,6.70
2019-03-11T17:59:13.873Z,6.70
2019-03-11T18:01:43.096Z,6.80
2019-03-11T18:04:12.197Z,6.70
2019-03-11T18:06:41.324Z,6.70
2019-03-11T18:09:10.461Z,6.70
2019-03-11T18:11:40.188Z,6.70
2019-03-11T18:14:10.423Z,6.80
2019-03-11T18:16:42.138Z,6.80
2019-03-11T18:19:11.375Z,6.80
2019-03-11T18:21:40.455Z,6.70
2019-03-11T18:24:10.976Z,6.70
2019-03-11T18:26:40.128Z,6.70
2019-03-11T18:29:09.242Z,6.70
2019-03-11T18:31:38.309Z,6.70
2019-03-11T18:34:07.502Z,6.70
2019-03-11T18:36:36.551Z,6.70
2019-03-11T18:39:07.979Z,6.70
2019-03-11T18:41:36.987Z,6.70
2019-03-11T18:44:06.399Z,6.60
2019-03-11T18:46:35.362Z,6.60
2019-03-11T18:49:05.282Z,6.60
2019-03-11T18:51:34.418Z,6.60
2019-03-11T18:54:03.613Z,6.60
2019-03-11T18:56:32.583Z,6.60
2019-03-11T18:59:01.799Z,6.50
2019-03-11T19:01:49.023Z,6.50
2019-03-11T19:04:20.207Z,6.50
2019-03-11T19:06:56.529Z,6.50
2019-03-11T19:09:26.964Z,6.50
2019-03-11T19:12:06.857Z,6.40
2019-03-11T19:15:12.544Z,6.40
2019-03-11T19:17:41.983Z,6.40
2019-03-11T19:20:12.614Z,6.40
2019-03-11T19:22:58.218Z,6.30
2019-03-11T19:25:27.860Z,6.30
2019-03-11T19:27:57.016Z,6.30
2019-03-11T19:30:26.210Z,6.30
2019-03-11T19:32:55.331Z,6.30
2019-03-11T19:35:24.403Z,6.30
2019-03-11T19:37:53.443Z,6.20
2019-03-11T19:40:35.482Z,6.20
2019-03-11T19:43:05.060Z,6.20
2019-03-11T19:45:40.307Z,6.20
2019-03-11T19:48:46.626Z,6.20
2019-03-11T19:51:16.526Z,6.20
2019-03-11T19:53:45.952Z,6.20
2019-03-11T19:56:15.939Z,6.20
2019-03-11T20:01:59.055Z,6.10
2019-03-11T20:05:03.791Z,6.10
2019-03-11T20:07:36.335Z,6.10
2019-03-11T20:10:27.874Z,6.10
2019-03-11T20:13:04.322Z,6.10
2019-03-11T20:15:53.938Z,6.10
2019-03-11T20:18:27.281Z,6.10
2019-03-11T20:21:45.528Z,6.00
2019-03-11T20:24:44.781Z,6.10
2019-03-11T20:31:50.306Z,6.00
2019-03-11T20:34:25.430Z,6.00
2019-03-11T20:37:04.075Z,6.00
2019-03-11T20:40:17.840Z,6.00
2019-03-11T20:42:47.145Z,5.90
2019-03-11T20:45:16.445Z,5.90
2019-03-11T20:48:13.517Z,5.90
2019-03-11T20:53:47.307Z,5.90
2019-03-11T20:56:17.520Z,5.90
2019-03-11T20:58:56.542Z,5.90
2019-03-11T21:01:26.017Z,5.80
2019-03-11T21:08:04.317Z,5.90
2019-03-11T21:10:33.617Z,5.90
2019-03-11T21:13:02.903Z,5.90
2019-03-11T21:15:32.226Z,6.00
2019-03-11T21:18:01.426Z,6.00
2019-03-11T21:20:30.841Z,6.00
2019-03-11T21:22:59.902Z,6.00
2019-03-11T21:25:28.888Z,6.00
2019-03-11T21:28:17.336Z,6.00
2019-03-11T21:30:46.363Z,6.00
2019-03-11T21:33:15.367Z,6.00
2019-03-11T21:35:51.519Z,6.00
2019-03-11T21:38:20.527Z,5.90
2019-03-11T21:40:49.632Z,5.90
2019-03-11T21:43:24.069Z,5.90
2019-03-11T21:45:53.495Z,5.90
2019-03-11T21:48:22.787Z,5.90
2019-03-11T21:51:02.027Z,5.90
2019-03-11T21:53:31.131Z,5.80
2019-03-11T21:56:00.338Z,5.80
2019-03-11T21:58:30.671Z,5.80
2019-03-11T22:00:59.731Z,5.80
2019-03-11T22:03:28.923Z,5.80
2019-03-11T22:05:58.059Z,5.80
2019-03-11T22:08:27.002Z,5.80
2019-03-11T22:10:56.031Z,5.80
2019-03-11T22:13:25.230Z,5.80
2019-03-11T22:15:54.169Z,5.80
2019-03-11T22:18:23.143Z,5.80
2019-03-11T22:20:52.532Z,5.80
2019-03-11T22:23:21.581Z,5.80
2019-03-11T22:25:50.574Z,5.80
2019-03-11T22:28:19.526Z,5.80
2019-03-11T22:30:48.500Z,5.80
2019-03-11T22:33:17.510Z,5.80
2019-03-11T22:35:46.463Z,5.80
2019-03-11T22:38:15.472Z,5.80
2019-03-11T22:40:44.388Z,5.90
2019-03-11T22:43:13.339Z,5.80
2019-03-11T22:45:42.513Z,5.90
2019-03-11T22:48:11.439Z,5.80
2019-03-11T22:50:40.685Z,5.80
2019-03-11T22:53:09.703Z,5.90
2019-03-11T22:55:39.466Z,5.90
2019-03-11T22:58:08.903Z,5.90
2019-03-11T23:00:56.690Z,5.90
2019-03-11T23:03:26.451Z,5.90
2019-03-11T23:05:57.953Z,5.90
2019-03-11T23:08:26.367Z,5.90
2019-03-11T23:10:55.258Z,5.90
2019-03-11T23:13:24.557Z,5.90
2019-03-11T23:15:53.514Z,5.80
2019-03-11T23:18:22.534Z,5.90
2019-03-11T23:20:51.699Z,5.90
2019-03-11T23:23:20.998Z,5.90
2019-03-11T23:25:50.058Z,6.00
2019-03-11T23:28:19.150Z,6.00
2019-03-11T23:30:48.558Z,5.90
2019-03-11T23:33:17.546Z,5.90
2019-03-11T23:35:46.571Z,5.90
2019-03-11T23:38:15.608Z,5.90
2019-03-11T23:40:44.887Z,5.90
2019-03-11T23:43:14.032Z,5.90
2019-03-11T23:45:43.050Z,5.90
2019-03-11T23:48:11.955Z,5.90
2019-03-11T23:50:40.999Z,5.90
2019-03-11T23:53:09.930Z,5.90
2019-03-11T23:55:38.842Z,5.90
2019-03-11T23:58:07.833Z,6.00
